createdAt,value
2023-03-25T00:00:33.228Z,4.50
2023-03-25T00:03:51.173Z,4.48
2023-03-25T00:07:03.926Z,4.70
2023-03-25T00:10:18.663Z,4.10
2023-03-25T00:13:32.090Z,3.70
2023-03-25T00:16:46.772Z,4.00
2023-03-25T00:20:00.800Z,3.83
2023-03-25T00:23:13.299Z,3.60
2023-03-25T00:26:30.155Z,4.10
2023-03-25T00:32:54.129Z,3.85
2023-03-25T00:36:07.849Z,4.05
2023-03-25T00:39:20.139Z,3.48
2023-03-25T00:42:34.556Z,3.75
2023-03-25T00:45:46.941Z,3.78
2023-03-25T00:49:00.278Z,3.70
2023-03-25T00:52:14.230Z,3.28
2023-03-25T00:55:27.755Z,3.83
2023-03-25T00:58:40.416Z,3.43
2023-03-25T01:01:53.586Z,3.25
2023-03-25T01:05:07.986Z,3.38
2023-03-25T01:08:22.537Z,3.50
2023-03-25T01:11:38.662Z,3.68
2023-03-25T01:14:51.651Z,3.88
2023-03-25T01:18:03.937Z,3.68
2023-03-25T01:21:17.306Z,3.70
2023-03-25T01:24:29.857Z,3.90
2023-03-25T01:27:41.970Z,3.75
2023-03-25T01:30:54.171Z,3.98
2023-03-25T01:34:07.652Z,3.60
2023-03-25T01:37:19.731Z,4.25
2023-03-25T01:40:32.195Z,4.40
2023-03-25T01:43:44.712Z,4.50
2023-03-25T01:46:59.388Z,5.05
2023-03-25T01:50:15.544Z,5.10
2023-03-25T01:53:28.071Z,5.05
2023-03-25T01:56:45.176Z,4.78
2023-03-25T01:59:59.796Z,4.60
2023-03-25T02:03:13.426Z,5.48
2023-03-25T02:06:32.357Z,5.10
2023-03-25T02:09:45.168Z,5.08
2023-03-25T02:12:57.588Z,6.03
2023-03-25T02:16:31.841Z,5.28
2023-03-25T02:20:18.127Z,6.00
2023-03-25T02:24:14.756Z,5.43
2023-03-25T02:27:36.942Z,5.85
2023-03-25T02:31:46.031Z,6.05
2023-03-25T02:38:43.839Z,6.38
2023-03-25T02:42:01.923Z,6.33
2023-03-25T02:45:19.126Z,5.33
2023-03-25T02:51:51.522Z,5.95
2023-03-25T02:55:10.443Z,6.60
2023-03-25T02:58:25.857Z,6.65
2023-03-25T03:01:38.172Z,7.28
2023-03-25T03:04:59.488Z,6.30
2023-03-25T03:08:26.719Z,6.10
2023-03-25T03:11:43.160Z,5.80
2023-03-25T03:15:15.257Z,5.90
2023-03-25T03:18:38.311Z,5.40
2023-03-25T03:21:55.912Z,5.75
2023-03-25T03:25:14.162Z,5.45
2023-03-25T03:28:32.158Z,5.20
2023-03-25T03:32:06.201Z,5.35
2023-03-25T03:35:08.299Z,5.88
2023-03-25T03:38:23.881Z,6.38
2023-03-25T03:41:40.343Z,6.28
2023-03-25T03:44:57.412Z,6.35
2023-03-25T03:51:29.595Z,5.93
2023-03-25T03:54:46.784Z,6.40
2023-03-25T03:58:04.253Z,5.90
2023-03-25T04:01:23.537Z,6.18
2023-03-25T04:04:38.492Z,5.90
2023-03-25T04:07:57.364Z,5.30
2023-03-25T04:11:15.504Z,5.50
2023-03-25T04:14:28.239Z,5.48
2023-03-25T04:17:40.807Z,5.90
2023-03-25T04:20:53.586Z,5.75
2023-03-25T04:24:07.915Z,5.95
2023-03-25T04:27:23.187Z,6.05
2023-03-25T04:30:37.869Z,5.65
2023-03-25T04:33:51.091Z,5.55
2023-03-25T04:37:03.341Z,4.80
2023-03-25T04:40:18.973Z,4.85
2023-03-25T04:43:32.125Z,4.78
2023-03-25T04:46:45.681Z,4.60
2023-03-25T04:49:57.858Z,4.73
2023-03-25T04:53:10.106Z,3.63
2023-03-25T04:56:24.937Z,3.08
2023-03-25T04:59:37.061Z,2.83
2023-03-25T05:02:54.260Z,2.70
2023-03-25T05:06:06.606Z,3.03
2023-03-25T05:09:24.626Z,3.03
2023-03-25T05:12:37.018Z,2.98
2023-03-25T05:15:50.864Z,2.80
2023-03-25T05:19:03.656Z,3.30
2023-03-25T05:22:16.113Z,3.10
2023-03-25T05:25:29.325Z,2.93
2023-03-25T05:28:41.898Z,3.30
2023-03-25T05:31:54.591Z,3.43
2023-03-25T05:35:07.693Z,2.78
2023-03-25T05:38:21.851Z,3.60
2023-03-25T05:41:39.025Z,3.78
2023-03-25T05:44:51.893Z,4.38
2023-03-25T05:48:04.270Z,4.58
2023-03-25T05:51:21.914Z,4.05
2023-03-25T05:54:34.198Z,4.65
2023-03-25T05:57:46.320Z,4.38
2023-03-25T06:00:59.991Z,5.03
2023-03-25T06:04:13.591Z,4.80
2023-03-25T06:07:26.246Z,5.05
2023-03-25T06:10:39.132Z,5.03
2023-03-25T06:13:53.856Z,5.05
2023-03-25T06:17:05.985Z,4.73
2023-03-25T06:20:20.286Z,5.68
2023-03-25T06:23:34.954Z,5.28
2023-03-25T06:26:47.477Z,6.33
2023-03-25T06:29:59.812Z,6.70
2023-03-25T06:33:11.986Z,7.55
2023-03-25T06:36:26.132Z,6.60
2023-03-25T06:39:39.160Z,5.83
2023-03-25T06:42:53.528Z,5.03
2023-03-25T06:46:24.734Z,4.73
2023-03-25T06:49:42.100Z,4.90
2023-03-25T06:52:54.412Z,5.90
2023-03-25T06:56:06.619Z,4.55
2023-03-25T06:59:18.808Z,5.30
2023-03-25T07:02:31.385Z,4.45
2023-03-25T07:05:43.891Z,4.75
2023-03-25T07:08:56.808Z,4.75
2023-03-25T07:12:09.824Z,6.08
2023-03-25T07:15:22.733Z,5.40
2023-03-25T07:18:36.019Z,5.33
2023-03-25T07:21:48.920Z,6.08
2023-03-25T07:25:03.378Z,5.55
2023-03-25T07:28:15.887Z,4.68
2023-03-25T07:31:30.249Z,5.38
2023-03-25T07:34:42.624Z,6.45
2023-03-25T07:37:55.400Z,5.63
2023-03-25T07:41:11.893Z,5.78
2023-03-25T07:44:27.480Z,4.80
2023-03-25T07:47:39.985Z,5.13
2023-03-25T07:50:52.448Z,5.30
2023-03-25T07:54:05.474Z,5.55
2023-03-25T07:57:19.029Z,5.53
2023-03-25T08:00:31.719Z,5.50
2023-03-25T08:03:44.085Z,4.98
2023-03-25T08:06:56.287Z,5.65
2023-03-25T08:10:09.434Z,5.58
2023-03-25T08:13:21.666Z,5.50
2023-03-25T08:16:34.180Z,6.23
2023-03-25T08:19:46.420Z,6.28
2023-03-25T08:22:59.401Z,5.88
2023-03-25T08:26:12.802Z,6.15
2023-03-25T08:29:25.593Z,6.55
2023-03-25T08:32:38.760Z,6.50
2023-03-25T08:35:51.410Z,7.15
2023-03-25T08:39:06.038Z,5.93
2023-03-25T08:42:19.608Z,6.10
2023-03-25T08:45:33.078Z,5.98
2023-03-25T08:48:45.605Z,5.45
2023-03-25T08:51:58.628Z,4.95
2023-03-25T08:55:12.676Z,5.28
2023-03-25T08:58:25.295Z,5.23
2023-03-25T09:01:37.975Z,4.48
2023-03-25T09:04:50.505Z,4.50
2023-03-25T09:08:02.722Z,3.98
2023-03-25T09:11:19.718Z,3.65
2023-03-25T09:14:30.044Z,10.05
2023-03-25T09:17:43.249Z,2.60
2023-03-25T09:20:56.588Z,4.35
2023-03-25T09:24:09.281Z,4.95
2023-03-25T09:27:21.727Z,3.40
2023-03-25T09:30:34.230Z,2.93
2023-03-25T09:33:46.950Z,3.10
2023-03-25T09:37:00.195Z,2.35
2023-03-25T09:40:17.290Z,3.50
2023-03-25T09:43:47.724Z,1.85
2023-03-25T09:47:06.380Z,2.00
2023-03-25T09:50:22.861Z,2.08
2023-03-25T09:53:42.292Z,2.03
2023-03-25T09:56:55.609Z,1.75
2023-03-25T10:00:21.765Z,1.93
2023-03-25T10:03:42.640Z,2.58
2023-03-25T10:07:01.095Z,1.70
2023-03-25T10:10:19.985Z,2.63
2023-03-25T10:13:39.029Z,2.50
2023-03-25T10:17:03.177Z,2.28
2023-03-25T10:20:22.513Z,1.40
2023-03-25T10:23:41.560Z,1.60
2023-03-25T10:26:58.228Z,2.45
2023-03-25T10:30:17.365Z,3.50
2023-03-25T10:33:36.098Z,2.60
2023-03-25T10:36:55.186Z,2.08
2023-03-25T10:40:24.769Z,2.05
2023-03-25T10:43:40.966Z,2.20
2023-03-25T10:46:58.500Z,2.70
2023-03-25T10:50:14.236Z,2.13
2023-03-25T10:53:30.599Z,2.00
2023-03-25T10:56:47.229Z,1.88
2023-03-25T11:00:12.398Z,3.48
2023-03-25T11:03:31.263Z,2.20
2023-03-25T11:06:46.980Z,2.68
2023-03-25T11:09:59.686Z,1.80
2023-03-25T11:13:18.815Z,1.93
2023-03-25T11:16:32.224Z,1.70
2023-03-25T11:19:51.225Z,2.70
2023-03-25T11:23:10.952Z,2.60
2023-03-25T11:26:27.673Z,3.05
2023-03-25T11:29:41.972Z,2.18
2023-03-25T11:33:03.415Z,1.78
2023-03-25T11:36:34.990Z,1.43
2023-03-25T11:39:48.864Z,1.70
2023-03-25T11:43:04.601Z,1.55
2023-03-25T11:46:20.557Z,2.00
2023-03-25T11:49:35.725Z,1.80
2023-03-25T11:52:51.750Z,1.95
2023-03-25T11:59:26.344Z,0.95
2023-03-25T12:02:44.724Z,1.08
2023-03-25T12:06:10.667Z,0.80
2023-03-25T12:09:23.818Z,1.43
2023-03-25T12:12:50.988Z,1.93
2023-03-25T12:16:14.399Z,2.03
2023-03-25T12:19:34.167Z,2.75
2023-03-25T12:23:06.569Z,4.40
2023-03-25T12:26:23.788Z,3.45
2023-03-25T12:29:47.633Z,2.20
2023-03-25T12:33:05.812Z,1.98
2023-03-25T12:36:39.454Z,2.58
2023-03-25T12:40:03.805Z,8.20
2023-03-25T12:43:21.856Z,11.85
2023-03-25T12:46:49.924Z,4.30
2023-03-25T12:50:22.694Z,2.38
2023-03-25T12:53:48.635Z,2.53
2023-03-25T12:57:12.184Z,1.95
2023-03-25T13:00:49.824Z,1.58
2023-03-25T13:04:38.439Z,2.00
2023-03-25T13:07:56.596Z,1.23
2023-03-25T13:11:16.518Z,1.00
2023-03-25T13:14:33.506Z,1.00
2023-03-25T13:21:13.814Z,1.08
2023-03-25T13:24:26.424Z,0.98
2023-03-25T13:27:43.856Z,0.73
2023-03-25T13:30:58.315Z,1.20
2023-03-25T13:34:23.066Z,0.68
2023-03-25T13:37:45.514Z,0.60
2023-03-25T13:41:06.735Z,0.55
2023-03-25T13:44:24.737Z,0.80
2023-03-25T13:47:41.898Z,1.00
2023-03-25T13:50:55.176Z,0.78
2023-03-25T13:54:12.922Z,0.90
2023-03-25T13:58:18.575Z,3.55
2023-03-25T14:01:52.562Z,1.20
2023-03-25T14:06:00.208Z,1.43
2023-03-25T14:09:34.825Z,1.73
2023-03-25T14:12:51.433Z,1.33
2023-03-25T14:16:10.599Z,1.50
2023-03-25T14:19:27.432Z,1.35
2023-03-25T14:22:43.988Z,1.20
2023-03-25T14:26:00.477Z,1.40
2023-03-25T14:29:23.168Z,1.87
2023-03-25T14:32:44.872Z,2.28
2023-03-25T14:36:00.476Z,1.90
2023-03-25T14:39:19.980Z,2.10
2023-03-25T14:43:03.341Z,2.80
2023-03-25T14:46:29.740Z,4.28
2023-03-25T14:50:01.915Z,2.55
2023-03-25T14:53:19.050Z,1.70
2023-03-25T14:59:50.073Z,2.88
2023-03-25T15:03:09.107Z,1.93
2023-03-25T15:06:26.819Z,1.60
2023-03-25T15:09:41.606Z,1.70
2023-03-25T15:12:59.867Z,1.80
2023-03-25T15:16:22.719Z,2.18
2023-03-25T15:19:35.525Z,1.90
2023-03-25T15:22:47.927Z,2.10
2023-03-25T15:26:03.484Z,3.20
2023-03-25T15:29:43.507Z,1.85
2023-03-25T15:33:06.348Z,10.10
2023-03-25T15:36:39.084Z,1.30
2023-03-25T15:40:22.768Z,1.53
2023-03-25T15:44:24.156Z,1.08
2023-03-25T15:48:23.003Z,1.53
2023-03-25T15:52:08.656Z,1.60
2023-03-25T15:55:25.550Z,1.20
2023-03-25T15:58:43.518Z,1.10
2023-03-25T16:01:58.351Z,1.55
2023-03-25T16:05:13.266Z,1.20
2023-03-25T16:08:31.629Z,1.70
2023-03-25T16:11:50.118Z,1.55
2023-03-25T16:15:03.355Z,1.88
2023-03-25T16:18:19.550Z,1.70
2023-03-25T16:21:34.124Z,2.20
2023-03-25T16:24:47.068Z,1.85
2023-03-25T16:28:02.505Z,2.00
2023-03-25T16:31:22.513Z,1.80
2023-03-25T16:34:40.231Z,1.85
2023-03-25T16:37:52.669Z,1.63
2023-03-25T16:41:11.827Z,1.75
2023-03-25T16:44:27.719Z,1.75
2023-03-25T16:47:40.612Z,1.90
2023-03-25T16:50:54.667Z,1.80
2023-03-25T16:54:09.112Z,2.00
2023-03-25T16:57:26.064Z,1.93
2023-03-25T17:00:47.824Z,2.15
2023-03-25T17:04:12.419Z,2.45
2023-03-25T17:07:29.886Z,2.50
2023-03-25T17:10:51.334Z,2.35
2023-03-25T17:14:09.181Z,3.05
2023-03-25T17:17:36.127Z,3.13
2023-03-25T17:20:51.946Z,3.40
2023-03-25T17:24:08.258Z,3.45
2023-03-25T17:27:34.730Z,3.50
2023-03-25T17:30:50.870Z,3.85
2023-03-25T17:34:11.185Z,4.28
2023-03-25T17:37:25.745Z,3.53
2023-03-25T17:40:38.855Z,4.15
2023-03-25T17:43:54.454Z,4.58
2023-03-25T17:47:06.899Z,4.73
2023-03-25T17:50:32.985Z,5.13
2023-03-25T17:53:45.307Z,5.55
2023-03-25T17:56:58.521Z,5.03
2023-03-25T18:00:15.451Z,4.13
2023-03-25T18:03:30.948Z,5.40
2023-03-25T18:06:43.496Z,7.08
2023-03-25T18:09:56.056Z,4.38
2023-03-25T18:13:09.014Z,4.50
2023-03-25T18:16:23.846Z,4.40
2023-03-25T18:19:37.098Z,4.10
2023-03-25T18:22:49.390Z,4.60
2023-03-25T18:26:04.356Z,4.25
2023-03-25T18:29:23.216Z,4.55
2023-03-25T18:32:36.012Z,5.80
2023-03-25T18:35:48.885Z,4.63
2023-03-25T18:39:02.417Z,4.85
2023-03-25T18:42:14.913Z,5.65
2023-03-25T18:45:29.594Z,4.70
2023-03-25T18:48:42.009Z,5.00
2023-03-25T18:51:54.331Z,4.80
2023-03-25T18:55:06.513Z,5.60
2023-03-25T18:58:24.820Z,4.98
2023-03-25T19:01:37.362Z,4.75
2023-03-25T19:05:00.008Z,5.43
2023-03-25T19:08:05.897Z,5.85
2023-03-25T19:11:21.781Z,6.23
2023-03-25T19:14:33.624Z,6.93
2023-03-25T19:17:46.056Z,5.68
2023-03-25T19:20:59.495Z,6.90
2023-03-25T19:24:13.070Z,7.13
2023-03-25T19:27:25.392Z,7.85
2023-03-25T19:30:38.149Z,9.08
2023-03-25T19:33:50.897Z,8.73
2023-03-25T19:37:05.511Z,15.75
2023-03-25T19:40:20.518Z,9.08
2023-03-25T19:43:33.061Z,8.55
2023-03-25T19:46:45.343Z,9.00
2023-03-25T19:49:57.776Z,9.28
2023-03-25T19:53:11.710Z,9.95
2023-03-25T19:56:24.028Z,10.45
2023-03-25T19:59:36.758Z,10.35
2023-03-25T20:02:52.186Z,10.65
2023-03-25T20:06:06.971Z,11.53
2023-03-25T20:09:19.481Z,12.33
2023-03-25T20:12:32.639Z,11.88
2023-03-25T20:15:45.265Z,12.20
2023-03-25T20:18:57.603Z,11.93
2023-03-25T20:22:23.961Z,12.30
2023-03-25T20:25:25.832Z,13.20
2023-03-25T20:28:38.197Z,12.63
2023-03-25T20:31:50.403Z,12.05
2023-03-25T20:35:04.437Z,12.53
2023-03-25T20:38:17.382Z,12.03
2023-03-25T20:41:29.628Z,11.78
2023-03-25T20:44:43.832Z,10.80
2023-03-25T20:47:56.317Z,10.80
2023-03-25T20:51:12.292Z,11.30
2023-03-25T20:54:25.313Z,10.90
2023-03-25T20:57:37.841Z,11.33
2023-03-25T21:00:50.277Z,11.70
2023-03-25T21:04:04.756Z,12.65
2023-03-25T21:07:19.473Z,11.73
2023-03-25T21:10:31.817Z,10.53
2023-03-25T21:13:44.342Z,11.10
2023-03-25T21:16:56.650Z,10.88
2023-03-25T21:20:10.710Z,11.03
2023-03-25T21:23:25.545Z,11.95
2023-03-25T21:26:38.027Z,11.25
2023-03-25T21:29:50.520Z,11.50
2023-03-25T21:33:03.264Z,11.25
2023-03-25T21:36:20.700Z,11.53
2023-03-25T21:39:33.238Z,10.38
2023-03-25T21:42:46.499Z,11.18
2023-03-25T21:45:59.204Z,9.30
2023-03-25T21:49:14.146Z,9.55
2023-03-25T21:52:26.636Z,9.23
2023-03-25T21:55:40.065Z,10.28
2023-03-25T21:58:53.258Z,9.85
2023-03-25T22:02:06.257Z,9.48
2023-03-25T22:05:20.921Z,10.05
2023-03-25T22:08:33.363Z,9.48
2023-03-25T22:11:46.003Z,9.28
2023-03-25T22:14:58.272Z,8.60
2023-03-25T22:18:10.889Z,6.60
2023-03-25T22:21:26.784Z,5.05
2023-03-25T22:24:39.218Z,4.90
2023-03-25T22:27:51.649Z,3.80
2023-03-25T22:31:04.536Z,4.20
2023-03-25T22:34:19.404Z,3.55
2023-03-25T22:37:32.028Z,3.13
2023-03-25T22:40:44.413Z,3.88
2023-03-25T22:43:57.849Z,3.20
2023-03-25T22:47:10.516Z,2.78
2023-03-25T22:50:23.187Z,2.68
2023-03-25T22:53:35.936Z,2.85
2023-03-25T22:56:48.782Z,2.60
2023-03-25T23:00:01.473Z,2.43
2023-03-25T23:03:14.200Z,2.83
2023-03-25T23:06:26.997Z,2.43
2023-03-25T23:09:48.010Z,2.48
2023-03-25T23:13:00.434Z,1.60
2023-03-25T23:16:17.261Z,1.85
2023-03-25T23:19:29.458Z,1.78
2023-03-25T23:22:41.724Z,1.60
2023-03-25T23:25:54.426Z,1.20
2023-03-25T23:29:09.183Z,1.50
2023-03-25T23:32:21.997Z,1.28
2023-03-25T23:35:35.688Z,1.33
2023-03-25T23:38:48.423Z,1.43
2023-03-25T23:42:01.660Z,1.38
2023-03-25T23:45:16.731Z,1.58
2023-03-25T23:48:30.264Z,1.38
2023-03-25T23:51:45.942Z,1.70
2023-03-25T23:54:58.145Z,2.00
2023-03-25T23:58:10.343Z,1.93
